Aeroporto :
LOGIN :

Iscrizione | Disclaimer

   EN    FR    IT 

 










Sommario :    VFR   VFR Marginale   IFR   IFR Intensivo   IFR Molto Intensivo
Visibilità : 
Base nubi : 
>= 8 km
>= 3000ft
5 / 8 km
1000 / 3000 ft
1500m / 5 km
500 / 1000 ft
800 / 1500m
200 / 500 ft
< 800m
< 200 ft
Simboli :   Temporali  Nebbia  Neve Forte  Precipitazioni Forti  Vento > 20 kt
SIGMETs :   Varie  Temporali  Ghiacco  Turbolenza  Onda orograficha  Ceneri Vulcaniche






- Altitudine del aeroporto : 194 ft


EBCV - Chièvres

ULTIMO METAR :
  • 230155Z AUTO 21008KT 9999 -RA FEW045/// BKN070/// BKN090/// 19/16 Q1017 BLU

METARs OBSOLETI :
  • 230125Z AUTO 19007KT 9999 SCT049/// BKN080/// BKN095/// 19/17 Q1017 BLU
  • 230055Z AUTO 20005KT 9999 FEW055/// BKN100/// BKN130/// 18/17 Q1017 BLU
  • 230025Z AUTO 20005KT 9999 FEW080/// SCT100/// BKN120/// 18/16 Q1017 BLU
  • 222355Z AUTO 21005KT 9999 FEW048/// SCT085/// BKN110/// 18/16 Q1017 BLU
  • 222325Z AUTO 22007KT 9999 FEW042/// BKN075/// OVC100/// 19/17 Q1018 BLU
  • 222255Z AUTO 21004KT 9999 FEW030/// SCT075/// BKN090/// 19/17 Q1018 BLU
  • 222225Z AUTO 22005KT 9999 FEW030/// SCT065/// BKN080/// 19/17 Q1018 BLU
  • 222155Z AUTO 23005KT 9999 FEW029/// SCT042/// BKN070/// 20/17 Q1018 BLU
  • 222125Z AUTO 26005KT 9999 FEW029/// SCT041/// BKN070/// 20/16 Q1018 BLU

TAF TAF EBCV
Valido dal 22 a 19 ore il 23 a 07 ore UTC


221541Z 2219/2307 23008KT 9999 SCT030 SCT045
TEMPO 2220/2222 SCT020 BKN030
TEMPO 2302/2307 4000 -RA -SHRA SCT013TCU OVC015
BECMG 2306/2307 27010KT BY EBWM



MetMap, La meteo Aeronautica in un colpo d'occhio ! - Copyright ORBIFLY Dicembre 2007 - Disclaimer

ORBIFLY MET'MAP TEAM :

Programmazione e sviluppo : Alexandra Zaïnal
Concezione : Baudouin d'Aumeries
Supporto tecnico e logistico : Manuel Goepfert
Aiuto : Marc-Olivier Méhu
Aiuto per la traduzione : Arnaldo La Scala




FONTI E CREDITI :

   NOAA